Terminal Aerodrome Forecast
Issued by NWS Knoxville/Tri Cities, TN

Home | Current Version | Previous Version | Text Only | Print | Product List | Glossary On
Versions: 1 2 3 4 5 6 7 8 9 10 11 12 13 14 15 16 17
000
FTUS44 KMRX 161120
TAFTYS
TAF
KTYS 161120Z 1612/1712 23003KT P6SM FEW035 BKN250
     FM161900 25007KT P6SM VCTS SCT050CB BKN100
     FM170000 VRB02KT P6SM BKN250=

USA.gov is the U.S. government's official web portal to all federal, state and local government web resources and services.